SBGL/GIG METAR and TAF weather

Enter ICAO airport designator
Station Type Date Time Source
SBGL METAR 2021/01/22 06:00 UTC NOAA

SBGL 220600Z 13004KT CAVOK 24/21 Q1015


Station Type Date Time Source
SBGL Decoded METAR 2021/01/22 06:00 UTC NOAA

Galeao, Brazil (SBGL) 22-49S 043-15W 42M
Jan 22, 2021 - 01:00 AM EST / 2021.01.22 0600 UTC
Wind: from the SE (130 degrees) at 5 MPH (4 KT):0
Visibility: greater than 7 mile(s):0
Temperature: 75 F (24 C)
Dew Point: 69 F (21 C)
Relative Humidity: 83%
Pressure (altimeter): 29.97 in. Hg (1015 hPa)
ob: SBGL 220600Z 13004KT CAVOK 24/21 Q1015
cycle: 6

Station Type Date Time Source
SBGL TAF 2021/01/22 06:03 UTC NOAA

TAF SBGL 220300Z 2206/2312 07005KT 9999 FEW020 TN24/2209Z TX32/2217Z
BECMG 2209/2211 04007KT FEW015
BECMG 2213/2216 15013KT SCT030
BECMG 2217/2219 14010KT FEW025 PROB40 2219/2222 17012KT 8000 SCT030 FEW035TCU
BECMG 2222/2224 11007KT
BECMG 2302/2305 27005KT FEW020
BECMG 2308/2310 03005KT FEW015
RMK PHN

Example: see airport list